Time;durP1;ratioP1;P1;durP2;ratioP2;P2;SDS_P1;SDS_P2;PMS_P1;PMS_P2;Temp;Humidity;BMP_temperature;BMP_pressure;BME280_temperature;BME280_humidity;BME280_pressure;Samples;Min_cycle;Max_cycle;Signal;HPM_P1;HPM_P2
2022/04/13 00:00:11;;;;;;;1.55;0.80;;;14.60;71.20;;;;;;5023598;28;20516;-75
2022/04/13 00:02:40;;;;;;;4.05;0.70;;;14.50;71.10;;;;;;5006720;28;20099;-74
2022/04/13 00:05:09;;;;;;;1.00;0.57;;;14.50;71.10;;;;;;5023810;28;20045;-77
2022/04/13 00:07:36;;;;;;;1.25;0.60;;;14.60;71.20;;;;;;5016698;28;20128;-76
2022/04/13 00:10:05;;;;;;;1.90;0.70;;;14.50;71.10;;;;;;5024765;28;20073;-73
2022/04/13 00:12:32;;;;;;;0.85;0.55;;;14.50;71.10;;;;;;5017665;28;20041;-73
2022/04/13 00:14:59;;;;;;;1.45;0.52;;;14.60;71.20;;;;;;5023450;28;20042;-75
2022/04/13 00:17:26;;;;;;;1.00;0.60;;;14.50;71.10;;;;;;5025102;28;20045;-74
2022/04/13 00:19:54;;;;;;;0.90;0.60;;;14.50;71.10;;;;;;5017677;28;20141;-76
2022/04/13 00:22:21;;;;;;;1.30;0.70;;;14.50;71.10;;;;;;5029038;28;20500;-72
2022/04/13 00:24:48;;;;;;;1.25;0.65;;;14.50;71.10;;;;;;5027561;28;20148;-74
2022/04/13 00:27:15;;;;;;;1.00;0.50;;;14.50;71.20;;;;;;5021832;28;20044;-73
2022/04/13 00:29:42;;;;;;;1.27;0.63;;;14.50;71.10;;;;;;5024431;28;20051;-74
2022/04/13 00:32:09;;;;;;;1.42;0.80;;;14.50;71.20;;;;;;5005967;28;20442;-74
2022/04/13 00:34:36;;;;;;;1.33;0.60;;;14.50;71.20;;;;;;5022661;28;20393;-74
2022/04/13 00:37:08;;;;;;;2.03;0.88;;;14.50;71.10;;;;;;5022715;28;20037;-77
2022/04/13 00:39:35;;;;;;;1.23;0.70;;;14.50;71.20;;;;;;5025439;28;20051;-73
2022/04/13 00:42:05;;;;;;;1.52;0.80;;;14.50;71.20;;;;;;5034115;28;20084;-75
2022/04/13 00:44:32;;;;;;;1.55;0.60;;;14.50;71.10;;;;;;5036286;28;20057;-76
2022/04/13 00:47:01;;;;;;;1.40;0.77;;;14.60;71.30;;;;;;5027085;28;20143;-75
2022/04/13 00:49:28;;;;;;;1.13;0.57;;;14.50;71.20;;;;;;5032071;28;20037;-76
2022/04/13 00:51:59;;;;;;;1.40;0.70;;;14.50;71.10;;;;;;5021068;28;20042;-74
2022/04/13 00:54:30;;;;;;;1.67;0.90;;;14.50;71.20;;;;;;5019501;28;20099;-74
2022/04/13 00:56:58;;;;;;;;;;;14.50;71.20;;;;;;5017985;28;20424;-76
2022/04/13 00:59:26;;;;;;;1.60;0.80;;;14.60;71.20;;;;;;5000145;28;20377;-74
2022/04/13 01:01:57;;;;;;;1.60;0.73;;;14.50;71.20;;;;;;4999255;28;20065;-74
2022/04/13 01:04:25;;;;;;;1.25;0.60;;;14.60;71.30;;;;;;5002342;28;20444;-76
2022/04/13 01:06:53;;;;;;;1.00;0.60;;;14.50;71.10;;;;;;4997198;28;20056;-75
2022/04/13 01:09:21;;;;;;;1.92;0.70;;;14.50;71.10;;;;;;4998820;28;20042;-73
2022/04/13 01:11:49;;;;;;;1.40;0.80;;;14.50;71.20;;;;;;5000227;28;20050;-75
2022/04/13 01:14:16;;;;;;;1.00;0.60;;;14.50;71.20;;;;;;4999866;28;20088;-75
2022/04/13 01:16:42;;;;;;;1.23;0.60;;;14.50;71.20;;;;;;5002267;28;20077;-74
2022/04/13 01:19:13;;;;;;;1.38;0.60;;;14.50;71.20;;;;;;5002772;28;20125;-75
2022/04/13 01:21:45;;;;;;;1.40;0.80;;;14.50;71.20;;;;;;4999694;28;20052;-74
2022/04/13 01:24:13;;;;;;;0.80;0.60;;;14.50;71.20;;;;;;5001804;28;20065;-76
2022/04/13 01:26:41;;;;;;;1.20;0.70;;;14.50;71.20;;;;;;5002515;28;20684;-72
2022/04/13 01:29:08;;;;;;;1.08;0.68;;;14.60;71.30;;;;;;4999013;28;20047;-74
2022/04/13 01:31:35;;;;;;;1.42;0.70;;;14.50;71.30;;;;;;4999959;28;20049;-74
2022/04/13 01:34:02;;;;;;;1.63;0.68;;;14.50;71.10;;;;;;4997197;28;20073;-74
2022/04/13 01:36:30;;;;;;;1.77;0.80;;;14.50;71.30;;;;;;5003421;28;20086;-76
2022/04/13 01:38:58;;;;;;;1.30;0.80;;;14.50;71.20;;;;;;4998972;28;20776;-75
2022/04/13 01:41:26;;;;;;;1.25;0.70;;;14.60;71.40;;;;;;4998060;28;20054;-75
2022/04/13 01:43:53;;;;;;;1.83;0.82;;;14.50;71.30;;;;;;4998257;28;20767;-76
2022/04/13 01:46:20;;;;;;;1.20;0.70;;;14.50;71.30;;;;;;5001640;28;20042;-74
2022/04/13 01:48:47;;;;;;;1.80;0.70;;;14.50;71.30;;;;;;5000671;28;20061;-77
2022/04/13 01:51:14;;;;;;;1.10;0.60;;;14.50;71.30;;;;;;5002159;28;20100;-76
2022/04/13 01:53:41;;;;;;;1.40;0.73;;;14.50;71.40;;;;;;5000304;28;20056;-74
2022/04/13 01:56:08;;;;;;;1.30;0.70;;;14.50;71.40;;;;;;5000646;28;20050;-75
2022/04/13 01:58:36;;;;;;;1.60;0.80;;;14.50;71.40;;;;;;5002482;28;20069;-76
2022/04/13 02:01:03;;;;;;;1.45;0.80;;;14.60;71.40;;;;;;5004196;28;20052;-73
2022/04/13 02:03:30;;;;;;;1.42;0.75;;;14.50;71.30;;;;;;5017839;28;20049;-73
2022/04/13 02:05:58;;;;;;;1.55;0.80;;;14.50;71.40;;;;;;5021431;28;20507;-75
2022/04/13 02:08:26;;;;;;;1.65;0.82;;;14.50;71.40;;;;;;5020832;28;20496;-75
2022/04/13 02:10:53;;;;;;;1.40;0.80;;;14.50;71.40;;;;;;5021257;28;20030;-74
2022/04/13 02:13:21;;;;;;;1.73;0.80;;;14.50;71.50;;;;;;5017051;28;20104;-73
2022/04/13 02:15:50;;;;;;;1.33;0.88;;;14.50;71.40;;;;;;5021543;28;20617;-75
2022/04/13 02:18:17;;;;;;;1.33;0.70;;;14.50;71.50;;;;;;5024240;28;20045;-76
2022/04/13 02:20:43;;;;;;;2.80;0.88;;;14.50;71.50;;;;;;5026387;28;20037;-73
2022/04/13 02:23:10;;;;;;;2.38;0.90;;;14.50;71.40;;;;;;5028680;28;20047;-75
2022/04/13 02:25:37;;;;;;;1.52;0.80;;;14.50;71.40;;;;;;5017464;28;20042;-74
2022/04/13 02:28:06;;;;;;;1.52;0.73;;;14.50;71.50;;;;;;5016471;28;20041;-74
2022/04/13 02:30:36;;;;;;;1.77;0.70;;;14.50;71.50;;;;;;5009115;28;20041;-73
2022/04/13 02:33:04;;;;;;;1.65;0.70;;;14.50;71.40;;;;;;5003348;28;20349;-73
2022/04/13 02:35:31;;;;;;;2.28;0.77;;;14.50;71.50;;;;;;5021682;28;20053;-76
2022/04/13 02:37:58;;;;;;;1.40;0.88;;;14.50;71.50;;;;;;5022646;28;20042;-77
2022/04/13 02:40:26;;;;;;;2.28;0.90;;;14.50;71.50;;;;;;5022950;28;20046;-74
2022/04/13 02:42:53;;;;;;;1.80;0.80;;;14.50;71.50;;;;;;5024151;28;20045;-74
2022/04/13 02:45:22;;;;;;;1.23;0.70;;;14.50;71.50;;;;;;5023509;28;20115;-74
2022/04/13 02:47:49;;;;;;;1.23;0.70;;;14.50;71.50;;;;;;5024423;28;20120;-76
2022/04/13 02:50:18;;;;;;;1.13;0.70;;;14.50;71.60;;;;;;5026180;28;20102;-74
2022/04/13 02:52:45;;;;;;;1.48;0.77;;;14.50;71.50;;;;;;5022938;28;20065;-75
2022/04/13 02:55:12;;;;;;;3.13;1.10;;;14.50;71.50;;;;;;5024972;28;20048;-75
2022/04/13 02:57:39;;;;;;;1.90;0.93;;;14.50;71.60;;;;;;5030986;28;20053;-74
2022/04/13 03:00:08;;;;;;;1.75;0.77;;;14.50;71.60;;;;;;5034720;28;20136;-74
2022/04/13 03:02:34;;;;;;;1.75;0.80;;;14.50;71.60;;;;;;5034715;28;20046;-76
2022/04/13 03:05:01;;;;;;;1.65;0.95;;;14.50;71.60;;;;;;5023448;28;20053;-77
2022/04/13 03:07:32;;;;;;;1.67;0.85;;;14.50;71.60;;;;;;5020540;28;20053;-73
2022/04/13 03:09:59;;;;;;;1.42;0.77;;;14.50;71.50;;;;;;5023293;28;20087;-77
2022/04/13 03:12:26;;;;;;;1.75;0.90;;;14.50;71.60;;;;;;5025212;28;20113;-75
2022/04/13 03:14:53;;;;;;;2.00;1.00;;;14.50;71.60;;;;;;5018750;28;20048;-74
2022/04/13 03:17:20;;;;;;;1.58;0.80;;;14.50;71.60;;;;;;5024823;28;20044;-73
2022/04/13 03:19:47;;;;;;;1.98;0.82;;;14.50;71.60;;;;;;5024071;28;20046;-75
2022/04/13 03:22:13;;;;;;;1.23;0.70;;;14.50;71.60;;;;;;5033935;28;20481;-75
2022/04/13 03:24:42;;;;;;;2.15;0.80;;;14.50;71.60;;;;;;5034951;28;20488;-74
2022/04/13 03:27:09;;;;;;;1.67;0.80;;;14.50;71.60;;;;;;5024752;28;20047;-75
2022/04/13 03:29:36;;;;;;;1.35;0.70;;;14.50;71.60;;;;;;5006584;28;20504;-75
2022/04/13 03:32:03;;;;;;;1.40;0.90;;;14.50;71.70;;;;;;5023667;28;20092;-74
2022/04/13 03:34:30;;;;;;;1.52;0.90;;;14.50;71.70;;;;;;5018810;28;20057;-75
2022/04/13 03:36:58;;;;;;;1.90;1.00;;;14.50;71.60;;;;;;5024713;28;20037;-75
2022/04/13 03:39:25;;;;;;;1.75;0.80;;;14.50;71.60;;;;;;5018244;28;20037;-75
2022/04/13 03:41:54;;;;;;;1.98;0.90;;;14.50;71.60;;;;;;5021813;28;20034;-75
2022/04/13 03:44:21;;;;;;;1.80;1.02;;;14.50;71.70;;;;;;5023560;28;20037;-75
2022/04/13 03:46:48;;;;;;;1.33;0.85;;;14.50;71.70;;;;;;5021654;28;20037;-74
2022/04/13 03:49:15;;;;;;;2.85;0.85;;;14.50;71.70;;;;;;5017676;28;20046;-72
2022/04/13 03:51:42;;;;;;;3.05;1.00;;;14.50;71.60;;;;;;5015887;28;20049;-76
2022/04/13 03:54:09;;;;;;;1.65;0.77;;;14.50;71.70;;;;;;5019945;28;20049;-76
2022/04/13 03:56:36;;;;;;;1.70;0.90;;;14.50;71.70;;;;;;5022090;28;20073;-75
2022/04/13 03:59:07;;;;;;;1.65;0.90;;;14.50;71.70;;;;;;5013604;28;20050;-75
2022/04/13 04:01:34;;;;;;;1.85;0.98;;;14.50;71.70;;;;;;5004192;28;20050;-74
2022/04/13 04:04:01;;;;;;;1.30;0.80;;;14.50;71.70;;;;;;4986173;28;20057;-75
2022/04/13 04:06:27;;;;;;;1.50;0.82;;;14.50;71.70;;;;;;5002257;28;20042;-73
2022/04/13 04:08:54;;;;;;;1.77;0.90;;;14.50;71.70;;;;;;5002861;28;20129;-75
2022/04/13 04:11:21;;;;;;;2.55;1.00;;;14.50;71.70;;;;;;5001048;28;20041;-74
2022/04/13 04:13:48;;;;;;;1.55;0.80;;;14.50;71.80;;;;;;5002823;28;20241;-75
2022/04/13 04:16:16;;;;;;;1.92;1.02;;;14.50;71.80;;;;;;5003209;28;20042;-75
2022/04/13 04:18:45;;;;;;;1.48;0.90;;;14.50;71.90;;;;;;5001944;28;20101;-74
2022/04/13 04:21:12;;;;;;;1.38;0.80;;;14.50;71.80;;;;;;5004771;28;20061;-77
2022/04/13 04:23:39;;;;;;;1.55;0.80;;;14.50;71.80;;;;;;5006480;28;20040;-75
2022/04/13 04:26:06;;;;;;;1.95;0.85;;;14.50;71.80;;;;;;5010078;28;20038;-75
2022/04/13 04:28:32;;;;;;;1.98;1.10;;;14.50;71.80;;;;;;5010774;28;20050;-72
2022/04/13 04:30:59;;;;;;;1.73;0.90;;;14.50;71.80;;;;;;5008510;28;20305;-75
2022/04/13 04:33:28;;;;;;;1.98;0.95;;;14.50;71.80;;;;;;4995475;28;20068;-73
2022/04/13 04:35:54;;;;;;;2.33;0.80;;;14.50;71.80;;;;;;5004054;28;20161;-76
2022/04/13 04:38:21;;;;;;;1.60;0.90;;;14.50;71.80;;;;;;5000838;28;20045;-75
2022/04/13 04:40:48;;;;;;;1.40;0.80;;;14.50;71.80;;;;;;5000366;28;20133;-76
2022/04/13 04:43:15;;;;;;;1.80;1.00;;;14.50;71.70;;;;;;5001038;28;20493;-73
2022/04/13 04:45:41;;;;;;;1.90;0.90;;;14.50;71.70;;;;;;5002043;28;20048;-73
2022/04/13 04:48:09;;;;;;;2.08;0.90;;;14.50;71.70;;;;;;5002050;28;20468;-78
2022/04/13 04:50:37;;;;;;;1.88;1.00;;;14.50;71.70;;;;;;5002709;28;20053;-74
2022/04/13 04:53:04;;;;;;;2.10;1.02;;;14.50;71.70;;;;;;5003226;28;20567;-74
2022/04/13 04:55:31;;;;;;;1.55;0.90;;;14.50;71.70;;;;;;4983663;28;20065;-74
2022/04/13 04:57:58;;;;;;;1.60;0.82;;;14.50;71.70;;;;;;5001623;28;20053;-76
2022/04/13 05:00:25;;;;;;;2.35;0.80;;;14.50;71.60;;;;;;5020122;28;20056;-73
2022/04/13 05:02:54;;;;;;;1.27;0.80;;;14.50;71.70;;;;;;5024176;28;20052;-73
2022/04/13 05:05:22;;;;;;;2.55;0.90;;;14.50;71.70;;;;;;5022072;28;20038;-75
2022/04/13 05:07:50;;;;;;;2.00;0.90;;;14.50;71.70;;;;;;5022533;28;20043;-76
2022/04/13 05:10:17;;;;;;;1.80;0.85;;;14.50;71.70;;;;;;5020207;28;20034;-77
2022/04/13 05:12:45;;;;;;;1.92;0.90;;;14.50;71.80;;;;;;5018686;28;20073;-75
2022/04/13 05:15:13;;;;;;;1.50;0.90;;;14.50;71.70;;;;;;5030400;28;20132;-73
2022/04/13 05:17:41;;;;;;;1.60;0.80;;;14.50;71.80;;;;;;5011142;28;20142;-74
2022/04/13 05:20:09;;;;;;;1.73;1.00;;;14.50;71.80;;;;;;5020839;28;20046;-77
2022/04/13 05:22:36;;;;;;;1.40;0.80;;;14.50;71.80;;;;;;5020920;28;20041;-74
2022/04/13 05:25:06;;;;;;;3.00;0.95;;;14.50;71.80;;;;;;5020201;28;20132;-75
2022/04/13 05:27:33;;;;;;;1.33;0.88;;;14.50;71.80;;;;;;5023794;28;20057;-75
2022/04/13 05:30:00;;;;;;;1.98;1.00;;;14.50;71.80;;;;;;5026427;28;20043;-75
2022/04/13 05:32:27;;;;;;;1.77;0.90;;;14.50;71.80;;;;;;5018671;28;20038;-74
2022/04/13 05:35:01;;;;;;;1.73;1.00;;;14.40;71.70;;;;;;5017421;28;20041;-78
2022/04/13 05:37:28;;;;;;;2.13;1.00;;;14.50;71.80;;;;;;5029997;28;20044;-77
2022/04/13 05:39:55;;;;;;;2.03;1.00;;;14.50;71.80;;;;;;5013638;28;20053;-75
2022/04/13 05:42:25;;;;;;;1.95;0.88;;;14.50;71.80;;;;;;5025830;28;20046;-75
2022/04/13 05:44:52;;;;;;;1.83;0.90;;;14.50;71.90;;;;;;5019778;28;20041;-74
2022/04/13 05:47:19;;;;;;;1.98;1.00;;;14.50;71.90;;;;;;5022363;28;20061;-77
2022/04/13 05:49:46;;;;;;;1.60;0.75;;;14.50;71.90;;;;;;5020313;28;20049;-76
2022/04/13 05:52:13;;;;;;;1.85;0.98;;;14.50;71.90;;;;;;5021058;28;20041;-74
2022/04/13 05:54:40;;;;;;;1.98;0.85;;;14.50;71.90;;;;;;5004104;28;20480;-74
2022/04/13 05:57:07;;;;;;;1.80;0.90;;;14.50;71.90;;;;;;5004167;28;20414;-74
2022/04/13 05:59:35;;;;;;;1.83;1.00;;;14.50;71.90;;;;;;5002267;28;20062;-73
2022/04/13 06:02:03;;;;;;;1.80;0.90;;;14.50;72.00;;;;;;5003826;28;20092;-76
2022/04/13 06:04:30;;;;;;;2.30;0.93;;;14.50;72.40;;;;;;5011718;28;20054;-75
2022/04/13 06:06:59;;;;;;;2.22;0.80;;;14.50;72.00;;;;;;4996480;28;20050;-75
2022/04/13 06:09:26;;;;;;;3.00;0.95;;;14.50;72.10;;;;;;5000469;28;20034;-75
2022/04/13 06:11:53;;;;;;;2.40;1.05;;;14.50;72.10;;;;;;4997516;28;20112;-77
2022/04/13 06:14:22;;;;;;;3.22;1.27;;;14.50;72.00;;;;;;4999058;28;20073;-77
2022/04/13 06:16:50;;;;;;;2.28;1.02;;;14.50;72.10;;;;;;5000858;28;20060;-75
2022/04/13 06:19:17;;;;;;;2.15;0.90;;;14.50;72.00;;;;;;5002867;28;20052;-73
2022/04/13 06:21:45;;;;;;;2.58;1.13;;;14.50;72.10;;;;;;5001547;28;20046;-76
2022/04/13 06:24:12;;;;;;;3.55;1.10;;;14.50;72.20;;;;;;5002726;28;20049;-74
2022/04/13 06:26:39;;;;;;;2.03;1.00;;;14.50;72.10;;;;;;5008044;28;20046;-75
2022/04/13 06:29:06;;;;;;;1.38;0.80;;;14.50;72.20;;;;;;5005850;28;20049;-73
2022/04/13 06:31:33;;;;;;;1.92;0.98;;;14.50;72.00;;;;;;5000317;28;20053;-76
2022/04/13 06:34:02;;;;;;;1.67;0.90;;;14.50;72.20;;;;;;4996454;28;20132;-75
2022/04/13 06:36:29;;;;;;;2.70;1.13;;;14.50;72.20;;;;;;5002041;28;20053;-74
2022/04/13 06:38:56;;;;;;;2.47;1.00;;;14.50;72.20;;;;;;4995127;28;20590;-77
2022/04/13 06:41:23;;;;;;;2.45;1.00;;;14.50;72.20;;;;;;4998617;28;20046;-75
2022/04/13 06:43:52;;;;;;;1.95;1.05;;;14.50;72.00;;;;;;5000251;28;20048;-75
2022/04/13 06:46:19;;;;;;;1.90;1.10;;;14.50;72.20;;;;;;4999281;28;20073;-75
2022/04/13 06:48:46;;;;;;;1.67;1.00;;;14.50;72.10;;;;;;5000016;28;20050;-73
2022/04/13 06:51:15;;;;;;;1.80;1.00;;;14.50;72.10;;;;;;5000759;28;20042;-76
2022/04/13 06:53:41;;;;;;;3.55;1.02;;;14.50;72.10;;;;;;4998631;28;20042;-74
2022/04/13 06:56:08;;;;;;;3.05;1.10;;;14.50;72.20;;;;;;4997359;28;20049;-74
2022/04/13 06:58:35;;;;;;;2.75;1.30;;;14.50;72.10;;;;;;5003918;28;20437;-75
2022/04/13 07:01:02;;;;;;;2.03;1.00;;;14.50;72.00;;;;;;5015296;28;20045;-74
2022/04/13 07:03:29;;;;;;;3.33;1.20;;;14.50;72.00;;;;;;5005070;28;20057;-76
2022/04/13 07:05:56;;;;;;;2.30;1.02;;;14.60;72.20;;;;;;5024408;28;20045;-74
2022/04/13 07:08:24;;;;;;;1.92;0.90;;;14.60;72.20;;;;;;5024164;28;20492;-75
2022/04/13 07:10:51;;;;;;;1.98;0.95;;;14.60;72.10;;;;;;5023636;28;20116;-73
2022/04/13 07:13:18;;;;;;;1.90;0.90;;;14.60;72.20;;;;;;5018894;28;20048;-74
2022/04/13 07:15:45;;;;;;;1.42;0.80;;;14.60;72.00;;;;;;5024406;28;20115;-76
2022/04/13 07:18:12;;;;;;;2.15;1.02;;;14.60;72.00;;;;;;5015424;28;20045;-75
2022/04/13 07:20:39;;;;;;;1.70;0.90;;;14.60;72.00;;;;;;5025723;28;20128;-73
2022/04/13 07:23:06;;;;;;;1.75;1.00;;;14.60;72.00;;;;;;5016398;28;20552;-75
2022/04/13 07:25:34;;;;;;;3.50;1.10;;;14.60;71.90;;;;;;5023887;28;20045;-75
2022/04/13 07:28:01;;;;;;;3.35;1.00;;;14.60;71.90;;;;;;5022550;28;20049;-77
2022/04/13 07:30:29;;;;;;;2.13;1.00;;;14.70;72.10;;;;;;5032797;28;20068;-73
2022/04/13 07:32:58;;;;;;;1.92;1.00;;;14.70;72.00;;;;;;5016988;28;20041;-76
2022/04/13 07:35:25;;;;;;;2.88;1.10;;;14.60;71.90;;;;;;5023729;28;20048;-75
2022/04/13 07:37:52;;;;;;;1.67;0.90;;;14.60;71.90;;;;;;5023882;28;20057;-76
2022/04/13 07:40:19;;;;;;;1.80;1.02;;;14.60;72.00;;;;;;5016049;28;20038;-75
2022/04/13 07:42:47;;;;;;;1.63;0.90;;;14.70;72.00;;;;;;5019849;28;20136;-74
2022/04/13 07:45:14;;;;;;;2.90;1.15;;;14.70;72.00;;;;;;5023941;28;20479;-76
2022/04/13 07:47:43;;;;;;;1.52;0.80;;;14.70;72.10;;;;;;5021058;28;20152;-73
2022/04/13 07:50:12;;;;;;;2.08;1.10;;;14.70;72.10;;;;;;5022861;28;20076;-74
2022/04/13 07:52:40;;;;;;;1.77;1.10;;;14.70;72.00;;;;;;5006052;28;20069;-74
2022/04/13 07:55:09;;;;;;;2.08;1.00;;;14.70;72.10;;;;;;5022553;28;20050;-75
2022/04/13 07:57:37;;;;;;;1.88;0.95;;;14.70;72.00;;;;;;5004954;28;20132;-75
2022/04/13 08:00:09;;;;;;;2.80;1.27;;;14.70;72.10;;;;;;5005119;28;20049;-75
2022/04/13 08:02:36;;;;;;;;;;;14.70;72.10;;;;;;5005085;28;20084;-74
2022/04/13 08:05:03;;;;;;;1.90;0.90;;;14.70;72.10;;;;;;5023642;28;19945;-76
2022/04/13 08:07:30;;;;;;;2.00;1.10;;;14.70;72.30;;;;;;5004551;28;20046;-76
2022/04/13 08:09:58;;;;;;;2.05;1.10;;;14.70;72.20;;;;;;5020865;28;20069;-74
2022/04/13 08:12:28;;;;;;;1.98;1.02;;;14.80;72.50;;;;;;5021534;28;20523;-75
2022/04/13 08:14:55;;;;;;;2.83;1.10;;;14.80;72.60;;;;;;5021033;28;20555;-73
2022/04/13 08:17:25;;;;;;;1.90;0.90;;;14.80;72.50;;;;;;5023360;28;20072;-73
2022/04/13 08:19:52;;;;;;;2.25;1.17;;;14.80;72.50;;;;;;5024199;28;20750;-77
2022/04/13 08:22:23;;;;;;;4.10;1.10;;;14.80;72.60;;;;;;5023459;28;20116;-74
2022/04/13 08:24:50;;;;;;;1.80;1.05;;;14.80;72.60;;;;;;5014285;28;20045;-73
2022/04/13 08:27:17;;;;;;;1.90;0.90;;;14.80;72.50;;;;;;5029602;28;20103;-73
2022/04/13 08:29:45;;;;;;;2.13;1.00;;;14.80;72.60;;;;;;5027435;28;20107;-73
2022/04/13 08:32:11;;;;;;;4.07;1.00;;;14.80;72.70;;;;;;5023098;28;20073;-75
2022/04/13 08:34:40;;;;;;;3.25;1.13;;;14.80;72.60;;;;;;5025195;28;20053;-76
2022/04/13 08:37:08;;;;;;;2.67;0.90;;;14.80;72.60;;;;;;5022301;28;20787;-75
2022/04/13 08:39:35;;;;;;;1.90;1.00;;;14.80;72.60;;;;;;5017392;28;20052;-74
2022/04/13 08:42:08;;;;;;;1.95;1.00;;;14.80;72.60;;;;;;5028439;28;20048;-73
2022/04/13 08:44:41;;;;;;;1.92;1.20;;;14.80;72.80;;;;;;5011876;28;20045;-73
2022/04/13 08:47:14;;;;;;;2.20;1.20;;;14.90;72.90;;;;;;5023236;28;20041;-73
2022/04/13 08:49:45;;;;;;;1.50;1.00;;;14.90;73.00;;;;;;5016571;28;20041;-74
2022/04/13 08:52:16;;;;;;;2.28;0.90;;;14.90;72.90;;;;;;5021795;28;20049;-77
2022/04/13 08:54:52;;;;;;;1.80;1.00;;;14.90;72.90;;;;;;4997437;28;20124;-75
2022/04/13 08:57:22;;;;;;;2.15;1.00;;;14.90;72.90;;;;;;5021872;28;20045;-74
2022/04/13 09:00:02;;;;;;;2.08;0.93;;;14.90;73.00;;;;;;5017090;28;20042;-75
2022/04/13 09:02:40;;;;;;;2.13;1.05;;;14.90;73.00;;;;;;5021065;28;20077;-74
2022/04/13 09:05:10;;;;;;;2.20;1.00;;;15.00;73.20;;;;;;5023540;28;20103;-74
2022/04/13 09:07:40;;;;;;;1.95;1.10;;;14.90;73.80;;;;;;5021217;28;20049;-75
2022/04/13 09:10:10;;;;;;;2.38;1.10;;;14.90;73.00;;;;;;5024652;28;20064;-74
2022/04/13 09:12:37;;;;;;;1.92;0.93;;;15.00;73.10;;;;;;5023391;28;20077;-74
2022/04/13 09:15:06;;;;;;;3.20;0.85;;;15.00;73.20;;;;;;4986713;28;20049;-75
2022/04/13 09:17:33;;;;;;;1.65;0.90;;;15.00;73.10;;;;;;5018102;28;20053;-73
2022/04/13 09:20:01;;;;;;;1.95;0.98;;;15.00;73.10;;;;;;5020004;28;20037;-72
2022/04/13 09:22:30;;;;;;;2.40;0.98;;;15.00;73.10;;;;;;5006039;28;20064;-76
2022/04/13 09:24:59;;;;;;;1.95;0.90;;;15.00;73.10;;;;;;5020578;28;20080;-74
2022/04/13 09:27:27;;;;;;;2.42;1.02;;;15.00;73.10;;;;;;5018000;28;20052;-75
2022/04/13 09:29:54;;;;;;;2.30;1.02;;;15.00;73.10;;;;;;5012470;28;20037;-73
2022/04/13 09:32:21;;;;;;;2.25;0.90;;;15.10;73.20;;;;;;5019899;28;20037;-76
2022/04/13 09:34:48;;;;;;;1.83;0.90;;;15.10;73.20;;;;;;5027366;28;20058;-73
2022/04/13 09:37:15;;;;;;;1.67;0.98;;;15.10;73.20;;;;;;5022733;28;20136;-76
2022/04/13 09:39:45;;;;;;;2.05;0.90;;;15.10;73.10;;;;;;5026423;28;20049;-73
2022/04/13 09:42:14;;;;;;;3.00;1.10;;;15.10;73.20;;;;;;5029809;28;20359;-72
2022/04/13 09:44:42;;;;;;;2.60;1.00;;;15.10;73.20;;;;;;5024455;28;20051;-74
2022/04/13 09:47:12;;;;;;;1.75;0.90;;;15.10;73.20;;;;;;5027308;28;20037;-75
2022/04/13 09:49:45;;;;;;;2.47;1.08;;;15.10;73.10;;;;;;5004174;28;20053;-73
2022/04/13 09:52:12;;;;;;;3.58;1.10;;;15.10;73.20;;;;;;5022062;28;20042;-73
2022/04/13 09:54:46;;;;;;;2.22;1.08;;;15.10;73.30;;;;;;5020314;28;20044;-74
2022/04/13 09:57:21;;;;;;;1.98;1.02;;;15.20;73.30;;;;;;5022474;28;20034;-74
2022/04/13 09:59:55;;;;;;;2.22;1.00;;;15.20;73.30;;;;;;5018083;28;20081;-76
2022/04/13 10:02:37;;;;;;;2.30;1.15;;;15.20;73.40;;;;;;5016073;28;20049;-76
2022/04/13 10:05:05;;;;;;;2.15;1.10;;;15.20;73.50;;;;;;5019346;28;20050;-76
2022/04/13 10:07:32;;;;;;;2.45;0.90;;;15.20;73.60;;;;;;5003391;28;20049;-76
2022/04/13 10:10:01;;;;;;;2.40;1.20;;;15.20;73.70;;;;;;5019818;28;20511;-77
2022/04/13 10:12:27;;;;;;;1.95;1.00;;;15.20;73.80;;;;;;5022086;28;20819;-74
2022/04/13 10:15:07;;;;;;;2.08;0.85;;;15.20;73.70;;;;;;5002953;28;20041;-76
2022/04/13 10:17:36;;;;;;;2.58;1.15;;;15.20;73.60;;;;;;5015516;28;20045;-73
2022/04/13 10:20:04;;;;;;;2.20;1.20;;;15.20;73.70;;;;;;4999033;28;20045;-73
2022/04/13 10:22:30;;;;;;;3.65;1.35;;;15.20;73.70;;;;;;5021703;28;20064;-74
2022/04/13 10:25:20;;;;;;;2.38;1.08;;;15.20;73.70;;;;;;5023830;28;20117;-74
2022/04/13 10:27:57;;;;;;;2.15;1.08;;;15.30;73.80;;;;;;5024077;28;20045;-74
2022/04/13 10:30:26;;;;;;;2.22;1.02;;;15.20;73.70;;;;;;5019994;28;20099;-76
2022/04/13 10:33:01;;;;;;;2.53;1.10;;;15.20;73.60;;;;;;5018548;28;20521;-75
2022/04/13 10:35:29;;;;;;;2.30;1.08;;;15.30;73.80;;;;;;5018298;28;20128;-73
2022/04/13 10:37:56;;;;;;;2.03;1.00;;;15.30;74.70;;;;;;4998390;28;20046;-74
2022/04/13 10:40:26;;;;;;;2.55;0.95;;;15.20;73.80;;;;;;5021306;28;20041;-75
2022/04/13 10:42:56;;;;;;;1.80;1.02;;;15.20;73.70;;;;;;5005022;28;20523;-76
2022/04/13 10:45:23;;;;;;;1.75;1.00;;;15.30;73.80;;;;;;5022445;28;20051;-74
2022/04/13 10:47:56;;;;;;;1.80;0.88;;;15.30;73.80;;;;;;5000003;28;20049;-73
2022/04/13 10:50:31;;;;;;;1.80;1.00;;;15.30;73.80;;;;;;5021670;28;20049;-75
2022/04/13 10:53:00;;;;;;;2.25;1.10;;;15.30;73.90;;;;;;5024767;28;20072;-76
2022/04/13 10:55:30;;;;;;;2.20;1.00;;;15.30;74.00;;;;;;5022015;28;20045;-75
2022/04/13 10:58:04;;;;;;;1.88;1.00;;;15.30;74.10;;;;;;5022586;28;20140;-75
2022/04/13 11:00:32;;;;;;;2.10;1.00;;;15.30;74.00;;;;;;5019986;28;20314;-73
2022/04/13 11:03:03;;;;;;;1.92;1.15;;;15.30;73.90;;;;;;5023850;28;20627;-75
2022/04/13 11:05:31;;;;;;;1.67;1.10;;;15.30;73.90;;;;;;5007746;28;20048;-74
2022/04/13 11:08:11;;;;;;;2.33;1.00;;;15.30;74.80;;;;;;5006181;28;20783;-74
2022/04/13 11:10:41;;;;;;;2.28;1.02;;;15.30;74.10;;;;;;5021907;28;20048;-74
2022/04/13 11:13:07;;;;;;;2.25;0.90;;;15.30;74.10;;;;;;5023206;28;20128;-76
2022/04/13 11:15:39;;;;;;;1.95;0.90;;;15.40;74.20;;;;;;5023925;28;20053;-73
2022/04/13 11:18:09;;;;;;;2.27;1.10;;;15.40;74.20;;;;;;5023876;28;20042;-74
2022/04/13 11:20:36;;;;;;;2.10;0.93;;;15.40;74.20;;;;;;5023131;28;20056;-75
2022/04/13 11:23:13;;;;;;;2.53;1.20;;;15.40;74.20;;;;;;5027137;28;20045;-73
2022/04/13 11:25:46;;;;;;;3.63;1.20;;;15.40;74.30;;;;;;5034163;28;20048;-76
2022/04/13 11:28:24;;;;;;;1.50;1.00;;;15.40;74.20;;;;;;5010658;28;20100;-76
2022/04/13 11:31:05;;;;;;;3.47;1.30;;;15.40;74.30;;;;;;5023568;28;20499;-75
2022/04/13 11:33:42;;;;;;;2.38;1.15;;;15.40;74.40;;;;;;5006238;28;20049;-76
2022/04/13 11:36:09;;;;;;;2.13;1.17;;;15.40;74.50;;;;;;5002297;28;20083;-78
2022/04/13 11:38:37;;;;;;;2.55;1.15;;;15.40;74.40;;;;;;5023060;28;20037;-73
2022/04/13 11:41:08;;;;;;;2.42;1.10;;;15.40;74.40;;;;;;5025923;28;20125;-76
2022/04/13 11:43:35;;;;;;;3.00;1.10;;;15.40;74.40;;;;;;5022057;28;20547;-73
2022/04/13 11:46:02;;;;;;;2.10;1.10;;;15.40;74.40;;;;;;5023434;28;20049;-74
2022/04/13 11:48:33;;;;;;;3.28;1.15;;;15.40;74.40;;;;;;5022324;28;20116;-75
2022/04/13 11:51:25;;;;;;;2.45;1.05;;;15.40;74.40;;;;;;5023066;28;20044;-74
2022/04/13 11:53:55;;;;;;;1.80;0.90;;;15.40;74.40;;;;;;5022404;28;20048;-75
2022/04/13 11:56:33;;;;;;;1.90;0.90;;;15.40;74.30;;;;;;5025121;28;20041;-74
2022/04/13 11:59:02;;;;;;;2.42;1.02;;;15.40;74.40;;;;;;5023288;28;20364;-74
2022/04/13 12:01:29;;;;;;;2.75;1.20;;;15.40;74.50;;;;;;5010098;28;20052;-76
2022/04/13 12:03:58;;;;;;;2.10;0.90;;;15.40;74.60;;;;;;5026242;28;20053;-75
2022/04/13 12:06:26;;;;;;;2.00;1.20;;;15.40;74.50;;;;;;5022754;28;20218;-75
2022/04/13 12:08:55;;;;;;;2.13;0.90;;;15.40;74.50;;;;;;5021076;28;20046;-75
2022/04/13 12:11:24;;;;;;;2.63;1.20;;;15.40;74.50;;;;;;5005490;28;20045;-76
2022/04/13 12:13:54;;;;;;;2.17;1.17;;;15.40;74.60;;;;;;5006756;28;20050;-75
2022/04/13 12:16:27;;;;;;;3.40;1.13;;;15.40;74.80;;;;;;5022577;28;20117;-75
2022/04/13 12:18:56;;;;;;;4.25;1.50;;;15.40;74.80;;;;;;5022950;28;20409;-74
2022/04/13 12:21:24;;;;;;;2.30;1.15;;;15.40;74.70;;;;;;5031209;28;20038;-76
2022/04/13 12:23:54;;;;;;;2.72;1.40;;;15.40;74.90;;;;;;5030348;28;20132;-74
2022/04/13 12:26:30;;;;;;;3.40;1.48;;;15.40;74.90;;;;;;5027192;28;20143;-75
2022/04/13 12:29:00;;;;;;;3.25;1.48;;;15.40;75.00;;;;;;5021857;28;20033;-76
2022/04/13 12:31:28;;;;;;;2.83;1.20;;;15.40;75.00;;;;;;5020620;28;20679;-74
2022/04/13 12:34:00;;;;;;;3.92;1.80;;;15.40;75.00;;;;;;5024175;28;20044;-77
2022/04/13 12:36:27;;;;;;;2.15;1.40;;;15.50;75.30;;;;;;5017035;28;20069;-75
2022/04/13 12:38:57;;;;;;;2.70;1.40;;;15.50;75.40;;;;;;5021718;28;20038;-75
2022/04/13 12:41:28;;;;;;;3.78;1.80;;;15.50;75.30;;;;;;5020657;28;20046;-76
2022/04/13 12:43:56;;;;;;;4.07;2.00;;;15.50;75.60;;;;;;5021766;28;20052;-74
2022/04/13 12:46:26;;;;;;;3.35;1.73;;;15.50;75.70;;;;;;5001556;28;20046;-76
2022/04/13 12:48:54;;;;;;;2.70;1.52;;;15.50;75.70;;;;;;5022046;28;20044;-74
2022/04/13 12:51:21;;;;;;;2.65;1.33;;;15.50;75.60;;;;;;5021076;28;20049;-75
2022/04/13 12:53:51;;;;;;;2.22;1.33;;;15.50;75.50;;;;;;5020287;28;20041;-75